sensor_id;sensor_type;location;lat;lon;timestamp;temperature;humidity
19348;DHT22;9810;52.480;9.806;2023-12-20T00:01:17;7.50;99.90
19348;DHT22;9810;52.480;9.806;2023-12-20T00:03:44;7.50;99.90
19348;DHT22;9810;52.480;9.806;2023-12-20T00:06:11;7.50;99.90
19348;DHT22;9810;52.480;9.806;2023-12-20T00:08:38;7.40;99.90
19348;DHT22;9810;52.480;9.806;2023-12-20T00:11:06;7.30;99.90
19348;DHT22;9810;52.480;9.806;2023-12-20T00:13:33;7.20;99.90
19348;DHT22;9810;52.480;9.806;2023-12-20T00:16:00;7.30;99.90
19348;DHT22;9810;52.480;9.806;2023-12-20T00:18:27;7.30;99.90
19348;DHT22;9810;52.480;9.806;2023-12-20T00:20:54;7.30;99.90
19348;DHT22;9810;52.480;9.806;2023-12-20T00:23:20;7.20;99.90
19348;DHT22;9810;52.480;9.806;2023-12-20T00:25:48;7.20;99.90
19348;DHT22;9810;52.480;9.806;2023-12-20T00:28:17;7.30;99.90
19348;DHT22;9810;52.480;9.806;2023-12-20T00:30:44;7.10;99.90
19348;DHT22;9810;52.480;9.806;2023-12-20T00:33:11;7.00;99.90
19348;DHT22;9810;52.480;9.806;2023-12-20T00:35:38;7.00;99.90
19348;DHT22;9810;52.480;9.806;2023-12-20T00:38:05;6.90;99.90
19348;DHT22;9810;52.480;9.806;2023-12-20T00:40:34;6.90;99.90
19348;DHT22;9810;52.480;9.806;2023-12-20T00:43:01;6.90;99.90
19348;DHT22;9810;52.480;9.806;2023-12-20T00:45:29;6.80;99.90
19348;DHT22;9810;52.480;9.806;2023-12-20T00:47:56;7.00;99.90
19348;DHT22;9810;52.480;9.806;2023-12-20T00:50:24;6.90;99.90
19348;DHT22;9810;52.480;9.806;2023-12-20T00:52:52;6.80;99.90
19348;DHT22;9810;52.480;9.806;2023-12-20T00:55:20;6.70;99.90
19348;DHT22;9810;52.480;9.806;2023-12-20T00:57:47;6.70;99.90
19348;DHT22;9810;52.480;9.806;2023-12-20T01:00:14;6.80;99.90
19348;DHT22;9810;52.480;9.806;2023-12-20T01:02:43;6.80;99.90
19348;DHT22;9810;52.480;9.806;2023-12-20T01:05:12;6.80;99.90
19348;DHT22;9810;52.480;9.806;2023-12-20T01:07:39;6.70;99.90
19348;DHT22;9810;52.480;9.806;2023-12-20T01:10:06;6.70;99.90
19348;DHT22;9810;52.480;9.806;2023-12-20T01:12:33;6.60;99.90
19348;DHT22;9810;52.480;9.806;2023-12-20T01:15:00;6.60;99.90
19348;DHT22;9810;52.480;9.806;2023-12-20T01:17:27;6.60;99.90
19348;DHT22;9810;52.480;9.806;2023-12-20T01:19:55;6.70;99.90
19348;DHT22;9810;52.480;9.806;2023-12-20T01:22:23;6.70;99.90
19348;DHT22;9810;52.480;9.806;2023-12-20T01:24:50;6.60;99.90
19348;DHT22;9810;52.480;9.806;2023-12-20T01:27:17;6.80;99.90
19348;DHT22;9810;52.480;9.806;2023-12-20T01:29:43;6.70;99.90
19348;DHT22;9810;52.480;9.806;2023-12-20T01:32:10;6.60;99.90
19348;DHT22;9810;52.480;9.806;2023-12-20T01:34:37;6.50;99.90
19348;DHT22;9810;52.480;9.806;2023-12-20T01:37:06;6.60;99.90
19348;DHT22;9810;52.480;9.806;2023-12-20T01:39:33;6.60;99.90
19348;DHT22;9810;52.480;9.806;2023-12-20T01:41:59;6.60;99.90
19348;DHT22;9810;52.480;9.806;2023-12-20T01:44:26;6.50;99.90
19348;DHT22;9810;52.480;9.806;2023-12-20T01:46:53;6.60;99.90
19348;DHT22;9810;52.480;9.806;2023-12-20T01:49:21;6.50;99.90
19348;DHT22;9810;52.480;9.806;2023-12-20T01:51:48;6.60;99.90
19348;DHT22;9810;52.480;9.806;2023-12-20T01:54:17;6.50;99.90
19348;DHT22;9810;52.480;9.806;2023-12-20T01:56:46;6.50;99.90
19348;DHT22;9810;52.480;9.806;2023-12-20T01:59:13;6.30;99.90
19348;DHT22;9810;52.480;9.806;2023-12-20T02:01:40;6.20;99.90
19348;DHT22;9810;52.480;9.806;2023-12-20T02:04:07;6.20;99.90
19348;DHT22;9810;52.480;9.806;2023-12-20T02:06:34;6.30;99.90
19348;DHT22;9810;52.480;9.806;2023-12-20T02:09:01;6.20;99.90
19348;DHT22;9810;52.480;9.806;2023-12-20T02:11:29;6.30;99.90
19348;DHT22;9810;52.480;9.806;2023-12-20T02:13:57;6.40;99.90
19348;DHT22;9810;52.480;9.806;2023-12-20T02:16:23;6.50;99.90
19348;DHT22;9810;52.480;9.806;2023-12-20T02:18:50;6.50;99.90
19348;DHT22;9810;52.480;9.806;2023-12-20T02:21:17;6.50;99.90
19348;DHT22;9810;52.480;9.806;2023-12-20T02:23:46;6.30;99.90
19348;DHT22;9810;52.480;9.806;2023-12-20T02:26:13;6.20;99.90
19348;DHT22;9810;52.480;9.806;2023-12-20T02:28:40;6.30;99.90
19348;DHT22;9810;52.480;9.806;2023-12-20T02:31:07;6.30;99.90
19348;DHT22;9810;52.480;9.806;2023-12-20T02:33:34;6.50;99.90
19348;DHT22;9810;52.480;9.806;2023-12-20T02:36:01;6.40;99.90
19348;DHT22;9810;52.480;9.806;2023-12-20T02:38:28;6.30;99.90
19348;DHT22;9810;52.480;9.806;2023-12-20T02:40:56;6.50;99.90
19348;DHT22;9810;52.480;9.806;2023-12-20T02:43:23;6.30;99.90
19348;DHT22;9810;52.480;9.806;2023-12-20T02:45:50;6.20;99.90
19348;DHT22;9810;52.480;9.806;2023-12-20T02:48:17;6.10;99.90
19348;DHT22;9810;52.480;9.806;2023-12-20T02:50:45;6.20;99.90
19348;DHT22;9810;52.480;9.806;2023-12-20T02:53:13;6.10;99.90
19348;DHT22;9810;52.480;9.806;2023-12-20T02:55:40;6.30;99.90
19348;DHT22;9810;52.480;9.806;2023-12-20T02:58:09;6.20;99.90
19348;DHT22;9810;52.480;9.806;2023-12-20T03:00:35;6.30;99.90
19348;DHT22;9810;52.480;9.806;2023-12-20T03:03:03;6.20;99.90
19348;DHT22;9810;52.480;9.806;2023-12-20T03:05:30;6.30;99.90
19348;DHT22;9810;52.480;9.806;2023-12-20T03:07:56;6.30;99.90
19348;DHT22;9810;52.480;9.806;2023-12-20T03:10:23;6.40;99.90
19348;DHT22;9810;52.480;9.806;2023-12-20T03:12:50;6.30;99.90
19348;DHT22;9810;52.480;9.806;2023-12-20T03:15:19;6.30;99.90
19348;DHT22;9810;52.480;9.806;2023-12-20T03:17:46;6.30;99.90
19348;DHT22;9810;52.480;9.806;2023-12-20T03:20:13;6.60;99.90
19348;DHT22;9810;52.480;9.806;2023-12-20T03:22:40;6.40;99.90
19348;DHT22;9810;52.480;9.806;2023-12-20T03:25:07;6.40;99.90
19348;DHT22;9810;52.480;9.806;2023-12-20T03:27:36;6.30;99.90
19348;DHT22;9810;52.480;9.806;2023-12-20T03:30:04;6.40;99.90
19348;DHT22;9810;52.480;9.806;2023-12-20T03:32:33;6.40;99.90
19348;DHT22;9810;52.480;9.806;2023-12-20T03:35:00;6.20;99.90
19348;DHT22;9810;52.480;9.806;2023-12-20T03:37:28;6.30;99.90
19348;DHT22;9810;52.480;9.806;2023-12-20T03:39:55;6.30;99.90
19348;DHT22;9810;52.480;9.806;2023-12-20T03:42:21;6.20;99.90
19348;DHT22;9810;52.480;9.806;2023-12-20T03:44:49;6.40;99.90
19348;DHT22;9810;52.480;9.806;2023-12-20T03:47:15;6.20;99.90
19348;DHT22;9810;52.480;9.806;2023-12-20T03:49:44;6.20;99.90
19348;DHT22;9810;52.480;9.806;2023-12-20T03:52:11;6.30;99.90
19348;DHT22;9810;52.480;9.806;2023-12-20T03:54:38;6.00;99.90
19348;DHT22;9810;52.480;9.806;2023-12-20T03:57:05;6.10;99.90
19348;DHT22;9810;52.480;9.806;2023-12-20T03:59:35;6.00;99.90
19348;DHT22;9810;52.480;9.806;2023-12-20T04:02:02;6.00;99.90
19348;DHT22;9810;52.480;9.806;2023-12-20T04:04:29;6.10;99.90
19348;DHT22;9810;52.480;9.806;2023-12-20T04:06:58;6.20;99.90
19348;DHT22;9810;52.480;9.806;2023-12-20T04:09:24;6.10;99.90
19348;DHT22;9810;52.480;9.806;2023-12-20T04:11:51;6.30;99.90
19348;DHT22;9810;52.480;9.806;2023-12-20T04:14:18;6.20;99.90
19348;DHT22;9810;52.480;9.806;2023-12-20T04:16:45;6.00;99.90
19348;DHT22;9810;52.480;9.806;2023-12-20T04:19:12;6.00;99.90
19348;DHT22;9810;52.480;9.806;2023-12-20T04:21:39;6.10;99.90
19348;DHT22;9810;52.480;9.806;2023-12-20T04:24:07;6.20;99.90
19348;DHT22;9810;52.480;9.806;2023-12-20T04:26:34;6.20;99.90
19348;DHT22;9810;52.480;9.806;2023-12-20T04:29:01;6.30;99.90
19348;DHT22;9810;52.480;9.806;2023-12-20T04:31:28;6.30;99.90
19348;DHT22;9810;52.480;9.806;2023-12-20T04:33:55;6.20;99.90
19348;DHT22;9810;52.480;9.806;2023-12-20T04:36:22;6.40;99.90
19348;DHT22;9810;52.480;9.806;2023-12-20T04:38:50;6.40;99.90
19348;DHT22;9810;52.480;9.806;2023-12-20T04:41:19;6.50;99.90
19348;DHT22;9810;52.480;9.806;2023-12-20T04:43:46;6.40;99.90
19348;DHT22;9810;52.480;9.806;2023-12-20T04:46:13;6.30;99.90
19348;DHT22;9810;52.480;9.806;2023-12-20T04:48:39;6.50;99.90
19348;DHT22;9810;52.480;9.806;2023-12-20T04:51:06;6.40;99.90
19348;DHT22;9810;52.480;9.806;2023-12-20T04:53:33;6.40;99.90
19348;DHT22;9810;52.480;9.806;2023-12-20T04:56:00;6.30;99.90
19348;DHT22;9810;52.480;9.806;2023-12-20T04:58:29;6.30;99.90
19348;DHT22;9810;52.480;9.806;2023-12-20T05:00:56;6.50;99.90
19348;DHT22;9810;52.480;9.806;2023-12-20T05:03:23;6.50;99.90
19348;DHT22;9810;52.480;9.806;2023-12-20T05:05:49;6.40;99.90
19348;DHT22;9810;52.480;9.806;2023-12-20T05:08:16;6.50;99.90
19348;DHT22;9810;52.480;9.806;2023-12-20T05:10:43;6.50;99.90
19348;DHT22;9810;52.480;9.806;2023-12-20T05:13:10;6.40;99.90
19348;DHT22;9810;52.480;9.806;2023-12-20T05:15:39;6.40;99.90
19348;DHT22;9810;52.480;9.806;2023-12-20T05:18:06;6.40;99.90
19348;DHT22;9810;52.480;9.806;2023-12-20T05:20:33;6.50;99.90
19348;DHT22;9810;52.480;9.806;2023-12-20T05:23:00;6.50;99.90
19348;DHT22;9810;52.480;9.806;2023-12-20T05:25:26;6.40;99.90
19348;DHT22;9810;52.480;9.806;2023-12-20T05:27:53;6.50;99.90
19348;DHT22;9810;52.480;9.806;2023-12-20T05:30:21;6.60;99.90
19348;DHT22;9810;52.480;9.806;2023-12-20T05:32:50;6.50;99.90
19348;DHT22;9810;52.480;9.806;2023-12-20T05:35:17;6.40;99.90
19348;DHT22;9810;52.480;9.806;2023-12-20T05:37:44;6.60;99.90
19348;DHT22;9810;52.480;9.806;2023-12-20T05:40:11;6.70;99.90
19348;DHT22;9810;52.480;9.806;2023-12-20T05:42:38;6.60;99.90
19348;DHT22;9810;52.480;9.806;2023-12-20T05:45:06;6.50;99.90
19348;DHT22;9810;52.480;9.806;2023-12-20T05:47:33;6.70;99.90
19348;DHT22;9810;52.480;9.806;2023-12-20T05:50:01;6.50;99.90
19348;DHT22;9810;52.480;9.806;2023-12-20T05:52:28;6.70;99.90
19348;DHT22;9810;52.480;9.806;2023-12-20T05:54:55;6.60;99.90
19348;DHT22;9810;52.480;9.806;2023-12-20T05:57:23;6.70;99.90
19348;DHT22;9810;52.480;9.806;2023-12-20T05:59:50;6.90;99.90
19348;DHT22;9810;52.480;9.806;2023-12-20T06:02:17;6.60;99.90
19348;DHT22;9810;52.480;9.806;2023-12-20T06:04:44;6.80;99.90
19348;DHT22;9810;52.480;9.806;2023-12-20T06:07:13;6.60;99.90
19348;DHT22;9810;52.480;9.806;2023-12-20T06:09:40;6.70;99.90
19348;DHT22;9810;52.480;9.806;2023-12-20T06:12:07;6.60;99.90
19348;DHT22;9810;52.480;9.806;2023-12-20T06:14:35;6.70;99.90
19348;DHT22;9810;52.480;9.806;2023-12-20T06:17:02;6.90;99.90
19348;DHT22;9810;52.480;9.806;2023-12-20T06:19:29;6.70;99.90
19348;DHT22;9810;52.480;9.806;2023-12-20T06:21:56;6.60;99.90
19348;DHT22;9810;52.480;9.806;2023-12-20T06:24:24;6.60;99.90
19348;DHT22;9810;52.480;9.806;2023-12-20T06:26:53;6.60;99.90
19348;DHT22;9810;52.480;9.806;2023-12-20T06:29:20;6.60;99.90
19348;DHT22;9810;52.480;9.806;2023-12-20T06:31:47;6.60;99.90
19348;DHT22;9810;52.480;9.806;2023-12-20T06:34:14;6.60;99.90
19348;DHT22;9810;52.480;9.806;2023-12-20T06:36:41;6.70;99.90
19348;DHT22;9810;52.480;9.806;2023-12-20T06:39:08;6.80;99.90
19348;DHT22;9810;52.480;9.806;2023-12-20T06:41:39;6.90;99.90
19348;DHT22;9810;52.480;9.806;2023-12-20T06:44:06;6.90;99.90
19348;DHT22;9810;52.480;9.806;2023-12-20T06:46:33;6.90;99.90
19348;DHT22;9810;52.480;9.806;2023-12-20T06:49:00;6.80;99.90
19348;DHT22;9810;52.480;9.806;2023-12-20T06:51:28;6.70;99.90
19348;DHT22;9810;52.480;9.806;2023-12-20T06:53:56;6.70;99.90
19348;DHT22;9810;52.480;9.806;2023-12-20T06:56:23;6.60;99.90
19348;DHT22;9810;52.480;9.806;2023-12-20T06:58:51;6.70;99.90
19348;DHT22;9810;52.480;9.806;2023-12-20T07:01:18;6.70;99.90
19348;DHT22;9810;52.480;9.806;2023-12-20T07:03:45;6.60;99.90
19348;DHT22;9810;52.480;9.806;2023-12-20T07:06:12;7.10;99.90
19348;DHT22;9810;52.480;9.806;2023-12-20T07:08:41;6.90;99.90
19348;DHT22;9810;52.480;9.806;2023-12-20T07:11:08;6.80;99.90
19348;DHT22;9810;52.480;9.806;2023-12-20T07:13:35;6.60;99.90
19348;DHT22;9810;52.480;9.806;2023-12-20T07:16:04;6.80;99.90
19348;DHT22;9810;52.480;9.806;2023-12-20T07:18:31;7.00;99.90
19348;DHT22;9810;52.480;9.806;2023-12-20T07:20:58;7.00;99.90
19348;DHT22;9810;52.480;9.806;2023-12-20T07:23:24;6.80;99.90
19348;DHT22;9810;52.480;9.806;2023-12-20T07:25:52;6.60;99.90
19348;DHT22;9810;52.480;9.806;2023-12-20T07:28:19;6.50;99.90
19348;DHT22;9810;52.480;9.806;2023-12-20T07:30:46;6.60;99.90
19348;DHT22;9810;52.480;9.806;2023-12-20T07:33:14;6.60;99.90
19348;DHT22;9810;52.480;9.806;2023-12-20T07:35:41;6.70;99.90
19348;DHT22;9810;52.480;9.806;2023-12-20T07:38:08;6.90;99.90
19348;DHT22;9810;52.480;9.806;2023-12-20T07:40:35;7.00;99.90
19348;DHT22;9810;52.480;9.806;2023-12-20T07:43:03;6.70;99.90
19348;DHT22;9810;52.480;9.806;2023-12-20T07:45:29;6.50;99.90
19348;DHT22;9810;52.480;9.806;2023-12-20T07:47:56;6.70;99.90
19348;DHT22;9810;52.480;9.806;2023-12-20T07:50:25;6.80;99.90
19348;DHT22;9810;52.480;9.806;2023-12-20T07:52:53;6.70;99.90
19348;DHT22;9810;52.480;9.806;2023-12-20T07:55:19;6.70;99.90
19348;DHT22;9810;52.480;9.806;2023-12-20T07:57:46;6.80;99.90
19348;DHT22;9810;52.480;9.806;2023-12-20T08:00:14;6.80;99.90
19348;DHT22;9810;52.480;9.806;2023-12-20T08:02:41;6.70;99.90
19348;DHT22;9810;52.480;9.806;2023-12-20T08:05:08;6.60;99.90
19348;DHT22;9810;52.480;9.806;2023-12-20T08:07:36;6.70;99.90
19348;DHT22;9810;52.480;9.806;2023-12-20T08:10:04;6.70;99.90
19348;DHT22;9810;52.480;9.806;2023-12-20T08:12:31;6.80;99.90
19348;DHT22;9810;52.480;9.806;2023-12-20T08:14:59;6.80;99.90
19348;DHT22;9810;52.480;9.806;2023-12-20T08:17:26;6.70;99.90
19348;DHT22;9810;52.480;9.806;2023-12-20T08:19:53;7.10;99.90
19348;DHT22;9810;52.480;9.806;2023-12-20T08:22:20;6.70;99.90
19348;DHT22;9810;52.480;9.806;2023-12-20T08:24:48;7.00;99.90
19348;DHT22;9810;52.480;9.806;2023-12-20T08:27:15;6.80;99.90
19348;DHT22;9810;52.480;9.806;2023-12-20T08:29:43;6.70;99.90
19348;DHT22;9810;52.480;9.806;2023-12-20T08:32:11;6.90;99.90
19348;DHT22;9810;52.480;9.806;2023-12-20T08:34:38;7.00;99.90
19348;DHT22;9810;52.480;9.806;2023-12-20T08:37:05;7.10;99.90
19348;DHT22;9810;52.480;9.806;2023-12-20T08:39:32;7.00;99.90
19348;DHT22;9810;52.480;9.806;2023-12-20T08:42:00;7.10;99.90
19348;DHT22;9810;52.480;9.806;2023-12-20T08:44:27;7.30;99.90
19348;DHT22;9810;52.480;9.806;2023-12-20T08:46:54;7.20;99.90
19348;DHT22;9810;52.480;9.806;2023-12-20T08:49:22;6.90;99.90
19348;DHT22;9810;52.480;9.806;2023-12-20T08:51:50;7.40;99.90
19348;DHT22;9810;52.480;9.806;2023-12-20T08:54:17;7.30;99.90
19348;DHT22;9810;52.480;9.806;2023-12-20T08:56:45;7.30;99.90
19348;DHT22;9810;52.480;9.806;2023-12-20T08:59:14;7.10;99.90
19348;DHT22;9810;52.480;9.806;2023-12-20T09:01:41;7.20;99.90
19348;DHT22;9810;52.480;9.806;2023-12-20T09:04:08;7.10;99.90
19348;DHT22;9810;52.480;9.806;2023-12-20T09:06:35;7.30;99.90
19348;DHT22;9810;52.480;9.806;2023-12-20T09:09:02;7.20;99.90
19348;DHT22;9810;52.480;9.806;2023-12-20T09:11:29;7.40;99.90
19348;DHT22;9810;52.480;9.806;2023-12-20T09:13:56;7.40;99.90
19348;DHT22;9810;52.480;9.806;2023-12-20T09:16:24;7.40;99.90
19348;DHT22;9810;52.480;9.806;2023-12-20T09:18:51;7.30;99.90
19348;DHT22;9810;52.480;9.806;2023-12-20T09:21:18;7.40;99.90
19348;DHT22;9810;52.480;9.806;2023-12-20T09:23:45;7.40;99.90
19348;DHT22;9810;52.480;9.806;2023-12-20T09:26:12;7.40;99.90
19348;DHT22;9810;52.480;9.806;2023-12-20T09:28:39;7.30;99.90
19348;DHT22;9810;52.480;9.806;2023-12-20T09:31:06;7.30;99.90
19348;DHT22;9810;52.480;9.806;2023-12-20T09:33:35;7.40;99.90
19348;DHT22;9810;52.480;9.806;2023-12-20T09:36:02;7.40;99.90
19348;DHT22;9810;52.480;9.806;2023-12-20T09:38:29;7.40;99.90
19348;DHT22;9810;52.480;9.806;2023-12-20T09:40:56;7.10;99.90
19348;DHT22;9810;52.480;9.806;2023-12-20T09:43:24;7.50;99.90
19348;DHT22;9810;52.480;9.806;2023-12-20T09:45:53;7.40;99.90
19348;DHT22;9810;52.480;9.806;2023-12-20T09:48:20;7.50;99.90
19348;DHT22;9810;52.480;9.806;2023-12-20T09:50:49;7.40;99.90
19348;DHT22;9810;52.480;9.806;2023-12-20T09:53:16;7.50;99.90
19348;DHT22;9810;52.480;9.806;2023-12-20T09:55:44;7.70;99.90
19348;DHT22;9810;52.480;9.806;2023-12-20T09:58:11;7.60;99.90
19348;DHT22;9810;52.480;9.806;2023-12-20T10:00:38;7.40;99.90
19348;DHT22;9810;52.480;9.806;2023-12-20T10:03:06;7.60;99.90
19348;DHT22;9810;52.480;9.806;2023-12-20T10:05:34;7.60;99.90
19348;DHT22;9810;52.480;9.806;2023-12-20T10:08:03;7.60;99.90
19348;DHT22;9810;52.480;9.806;2023-12-20T10:10:30;8.00;99.90
19348;DHT22;9810;52.480;9.806;2023-12-20T10:13:05;7.60;99.90
19348;DHT22;9810;52.480;9.806;2023-12-20T10:15:32;7.70;99.90
19348;DHT22;9810;52.480;9.806;2023-12-20T10:17:59;7.70;99.90
19348;DHT22;9810;52.480;9.806;2023-12-20T10:20:27;7.70;99.90
19348;DHT22;9810;52.480;9.806;2023-12-20T10:22:55;7.60;99.90
19348;DHT22;9810;52.480;9.806;2023-12-20T10:25:24;7.60;99.90
19348;DHT22;9810;52.480;9.806;2023-12-20T10:28:09;7.70;99.90
19348;DHT22;9810;52.480;9.806;2023-12-20T10:30:36;7.70;99.90
19348;DHT22;9810;52.480;9.806;2023-12-20T10:33:03;7.80;99.90
19348;DHT22;9810;52.480;9.806;2023-12-20T10:35:31;7.70;99.90
19348;DHT22;9810;52.480;9.806;2023-12-20T10:38:02;7.50;99.90
19348;DHT22;9810;52.480;9.806;2023-12-20T10:40:31;7.60;99.90
19348;DHT22;9810;52.480;9.806;2023-12-20T10:43:02;7.80;99.90
19348;DHT22;9810;52.480;9.806;2023-12-20T10:45:29;7.80;99.90
19348;DHT22;9810;52.480;9.806;2023-12-20T10:47:58;7.50;99.90
19348;DHT22;9810;52.480;9.806;2023-12-20T10:50:27;7.50;99.90
19348;DHT22;9810;52.480;9.806;2023-12-20T10:52:55;7.60;99.90
19348;DHT22;9810;52.480;9.806;2023-12-20T10:55:22;7.60;99.90
19348;DHT22;9810;52.480;9.806;2023-12-20T10:57:51;7.60;99.90
19348;DHT22;9810;52.480;9.806;2023-12-20T11:00:21;7.60;99.90
19348;DHT22;9810;52.480;9.806;2023-12-20T11:02:49;7.90;99.90
19348;DHT22;9810;52.480;9.806;2023-12-20T11:05:25;7.80;99.90
19348;DHT22;9810;52.480;9.806;2023-12-20T11:08:00;7.80;99.90
19348;DHT22;9810;52.480;9.806;2023-12-20T11:10:31;7.80;99.90
19348;DHT22;9810;52.480;9.806;2023-12-20T11:13:10;7.50;99.90
19348;DHT22;9810;52.480;9.806;2023-12-20T11:15:40;7.60;99.90
19348;DHT22;9810;52.480;9.806;2023-12-20T11:18:07;7.60;99.90
19348;DHT22;9810;52.480;9.806;2023-12-20T11:20:37;7.80;99.90
19348;DHT22;9810;52.480;9.806;2023-12-20T11:23:04;7.40;99.90
19348;DHT22;9810;52.480;9.806;2023-12-20T11:25:46;7.30;99.90
19348;DHT22;9810;52.480;9.806;2023-12-20T11:28:15;7.50;99.90
19348;DHT22;9810;52.480;9.806;2023-12-20T11:30:48;7.10;99.90
19348;DHT22;9810;52.480;9.806;2023-12-20T11:33:16;7.00;99.90
19348;DHT22;9810;52.480;9.806;2023-12-20T11:35:45;7.10;99.90
19348;DHT22;9810;52.480;9.806;2023-12-20T11:38:14;7.10;99.90
19348;DHT22;9810;52.480;9.806;2023-12-20T11:40:42;7.10;99.90
19348;DHT22;9810;52.480;9.806;2023-12-20T11:43:09;7.20;99.90
19348;DHT22;9810;52.480;9.806;2023-12-20T11:45:38;7.10;99.90
19348;DHT22;9810;52.480;9.806;2023-12-20T11:48:15;7.00;99.90
19348;DHT22;9810;52.480;9.806;2023-12-20T11:50:42;7.00;99.90
19348;DHT22;9810;52.480;9.806;2023-12-20T11:53:10;7.00;99.90
19348;DHT22;9810;52.480;9.806;2023-12-20T11:55:37;7.10;99.90
19348;DHT22;9810;52.480;9.806;2023-12-20T11:58:04;7.00;99.90
19348;DHT22;9810;52.480;9.806;2023-12-20T12:00:31;7.00;99.90
19348;DHT22;9810;52.480;9.806;2023-12-20T12:03:00;7.00;99.90
19348;DHT22;9810;52.480;9.806;2023-12-20T12:05:30;6.90;99.90
19348;DHT22;9810;52.480;9.806;2023-12-20T12:07:57;6.70;99.90
19348;DHT22;9810;52.480;9.806;2023-12-20T12:10:24;6.70;99.90
19348;DHT22;9810;52.480;9.806;2023-12-20T12:12:51;6.90;99.90
19348;DHT22;9810;52.480;9.806;2023-12-20T12:15:17;7.00;99.90
19348;DHT22;9810;52.480;9.806;2023-12-20T12:17:52;6.90;99.90
19348;DHT22;9810;52.480;9.806;2023-12-20T12:20:21;6.70;99.90
19348;DHT22;9810;52.480;9.806;2023-12-20T12:22:57;6.70;99.90
19348;DHT22;9810;52.480;9.806;2023-12-20T12:25:24;6.60;99.90
19348;DHT22;9810;52.480;9.806;2023-12-20T12:27:52;6.40;99.90
19348;DHT22;9810;52.480;9.806;2023-12-20T12:30:18;6.30;99.90
19348;DHT22;9810;52.480;9.806;2023-12-20T12:32:46;6.30;99.90
19348;DHT22;9810;52.480;9.806;2023-12-20T12:35:14;6.40;99.90
19348;DHT22;9810;52.480;9.806;2023-12-20T12:37:43;6.40;99.90
19348;DHT22;9810;52.480;9.806;2023-12-20T12:40:11;6.50;99.90
19348;DHT22;9810;52.480;9.806;2023-12-20T12:42:39;6.50;99.90
19348;DHT22;9810;52.480;9.806;2023-12-20T12:45:07;6.50;99.90
19348;DHT22;9810;52.480;9.806;2023-12-20T12:47:34;6.90;99.90
19348;DHT22;9810;52.480;9.806;2023-12-20T12:50:02;7.00;99.90
19348;DHT22;9810;52.480;9.806;2023-12-20T12:52:30;6.80;99.90
19348;DHT22;9810;52.480;9.806;2023-12-20T12:54:58;6.80;99.90
19348;DHT22;9810;52.480;9.806;2023-12-20T12:57:25;6.90;99.90
19348;DHT22;9810;52.480;9.806;2023-12-20T12:59:52;6.70;99.90
19348;DHT22;9810;52.480;9.806;2023-12-20T13:02:18;6.60;99.90
19348;DHT22;9810;52.480;9.806;2023-12-20T13:04:45;6.50;99.90
19348;DHT22;9810;52.480;9.806;2023-12-20T13:07:12;6.40;99.90
19348;DHT22;9810;52.480;9.806;2023-12-20T13:09:39;6.40;99.90
19348;DHT22;9810;52.480;9.806;2023-12-20T13:12:09;6.30;99.90
19348;DHT22;9810;52.480;9.806;2023-12-20T13:14:35;6.30;99.90
19348;DHT22;9810;52.480;9.806;2023-12-20T13:17:03;6.30;99.90
19348;DHT22;9810;52.480;9.806;2023-12-20T13:19:31;6.40;99.90
19348;DHT22;9810;52.480;9.806;2023-12-20T13:21:58;6.50;99.90
19348;DHT22;9810;52.480;9.806;2023-12-20T13:24:25;6.40;99.90
19348;DHT22;9810;52.480;9.806;2023-12-20T13:26:52;6.40;99.90
19348;DHT22;9810;52.480;9.806;2023-12-20T13:29:21;6.30;99.90
19348;DHT22;9810;52.480;9.806;2023-12-20T13:31:49;6.30;99.90
19348;DHT22;9810;52.480;9.806;2023-12-20T13:34:16;6.20;99.90
19348;DHT22;9810;52.480;9.806;2023-12-20T13:36:44;6.30;99.90
19348;DHT22;9810;52.480;9.806;2023-12-20T13:39:13;6.10;99.90
19348;DHT22;9810;52.480;9.806;2023-12-20T13:41:40;6.20;99.90
19348;DHT22;9810;52.480;9.806;2023-12-20T13:44:07;6.20;99.90
19348;DHT22;9810;52.480;9.806;2023-12-20T13:46:36;6.30;99.90
19348;DHT22;9810;52.480;9.806;2023-12-20T13:49:03;6.40;99.90
19348;DHT22;9810;52.480;9.806;2023-12-20T13:51:30;6.40;99.90
19348;DHT22;9810;52.480;9.806;2023-12-20T13:53:57;6.30;99.90
19348;DHT22;9810;52.480;9.806;2023-12-20T13:56:24;6.30;99.90
19348;DHT22;9810;52.480;9.806;2023-12-20T13:58:51;6.60;99.90
19348;DHT22;9810;52.480;9.806;2023-12-20T14:01:18;6.30;99.90
19348;DHT22;9810;52.480;9.806;2023-12-20T14:03:47;6.30;99.90
19348;DHT22;9810;52.480;9.806;2023-12-20T14:06:14;6.30;99.90
19348;DHT22;9810;52.480;9.806;2023-12-20T14:08:42;6.30;99.90
19348;DHT22;9810;52.480;9.806;2023-12-20T14:11:09;6.40;99.90
19348;DHT22;9810;52.480;9.806;2023-12-20T14:13:36;6.30;99.90
19348;DHT22;9810;52.480;9.806;2023-12-20T14:16:03;6.40;99.90
19348;DHT22;9810;52.480;9.806;2023-12-20T14:18:30;6.30;99.90
19348;DHT22;9810;52.480;9.806;2023-12-20T14:20:59;6.60;99.90
19348;DHT22;9810;52.480;9.806;2023-12-20T14:23:26;6.70;99.90
19348;DHT22;9810;52.480;9.806;2023-12-20T14:25:52;6.70;99.90
19348;DHT22;9810;52.480;9.806;2023-12-20T14:28:21;6.40;99.90
19348;DHT22;9810;52.480;9.806;2023-12-20T14:30:48;6.40;99.90
19348;DHT22;9810;52.480;9.806;2023-12-20T14:33:15;6.50;99.90
19348;DHT22;9810;52.480;9.806;2023-12-20T14:35:42;6.50;99.90
19348;DHT22;9810;52.480;9.806;2023-12-20T14:38:11;6.50;99.90
19348;DHT22;9810;52.480;9.806;2023-12-20T14:40:40;6.50;99.90
19348;DHT22;9810;52.480;9.806;2023-12-20T14:43:07;6.50;99.90
19348;DHT22;9810;52.480;9.806;2023-12-20T14:45:34;6.60;99.90
19348;DHT22;9810;52.480;9.806;2023-12-20T14:48:01;6.50;99.90
19348;DHT22;9810;52.480;9.806;2023-12-20T14:50:28;6.60;99.90
19348;DHT22;9810;52.480;9.806;2023-12-20T14:52:55;6.60;99.90
19348;DHT22;9810;52.480;9.806;2023-12-20T14:55:23;6.80;99.90
19348;DHT22;9810;52.480;9.806;2023-12-20T14:57:52;6.70;99.90
19348;DHT22;9810;52.480;9.806;2023-12-20T15:00:20;6.70;99.90
19348;DHT22;9810;52.480;9.806;2023-12-20T15:02:46;6.60;99.90
19348;DHT22;9810;52.480;9.806;2023-12-20T15:05:13;6.60;99.90
19348;DHT22;9810;52.480;9.806;2023-12-20T15:07:41;6.70;99.90
19348;DHT22;9810;52.480;9.806;2023-12-20T15:10:08;6.70;99.90
19348;DHT22;9810;52.480;9.806;2023-12-20T15:12:37;6.60;99.90
19348;DHT22;9810;52.480;9.806;2023-12-20T15:15:05;6.90;99.90
19348;DHT22;9810;52.480;9.806;2023-12-20T15:17:32;6.90;99.90
19348;DHT22;9810;52.480;9.806;2023-12-20T15:19:59;6.60;99.90
19348;DHT22;9810;52.480;9.806;2023-12-20T15:22:26;6.70;99.90
19348;DHT22;9810;52.480;9.806;2023-12-20T15:24:53;6.70;99.90
19348;DHT22;9810;52.480;9.806;2023-12-20T15:27:20;6.70;99.90
19348;DHT22;9810;52.480;9.806;2023-12-20T15:29:49;6.70;99.90
19348;DHT22;9810;52.480;9.806;2023-12-20T15:32:17;6.60;99.90
19348;DHT22;9810;52.480;9.806;2023-12-20T15:34:46;6.70;99.90
19348;DHT22;9810;52.480;9.806;2023-12-20T15:37:13;6.70;99.90
19348;DHT22;9810;52.480;9.806;2023-12-20T15:39:41;6.60;99.90
19348;DHT22;9810;52.480;9.806;2023-12-20T15:42:08;6.70;99.90
19348;DHT22;9810;52.480;9.806;2023-12-20T15:44:35;6.80;99.90
19348;DHT22;9810;52.480;9.806;2023-12-20T15:47:04;6.70;99.90
19348;DHT22;9810;52.480;9.806;2023-12-20T15:49:31;6.80;99.90
19348;DHT22;9810;52.480;9.806;2023-12-20T15:51:58;6.60;99.90
19348;DHT22;9810;52.480;9.806;2023-12-20T15:54:24;6.60;99.90
19348;DHT22;9810;52.480;9.806;2023-12-20T15:56:51;6.50;99.90
19348;DHT22;9810;52.480;9.806;2023-12-20T15:59:18;6.30;99.90
19348;DHT22;9810;52.480;9.806;2023-12-20T16:01:45;6.30;99.90
19348;DHT22;9810;52.480;9.806;2023-12-20T16:04:14;6.10;99.90